createdAt,value
2022-08-22T00:02:54.107Z,21.8
2022-08-22T00:03:51.600Z,19.5
2022-08-22T00:08:47.964Z,19.4
2022-08-22T00:14:03.461Z,19.3
2022-08-22T00:19:10.921Z,19.2
2022-08-22T00:24:17.455Z,19.1
2022-08-22T00:30:47.986Z,19.1
2022-08-22T00:34:54.257Z,19.0
2022-08-22T00:39:36.648Z,18.9
2022-08-22T00:44:42.967Z,18.9
2022-08-22T00:50:09.566Z,18.8
2022-08-22T00:54:47.029Z,18.7
2022-08-22T01:00:03.530Z,18.7
2022-08-22T01:05:09.901Z,18.6
2022-08-22T01:10:16.301Z,18.5
2022-08-22T01:15:12.662Z,18.5
2022-08-22T01:20:29.068Z,18.4
2022-08-22T01:25:55.482Z,18.3
2022-08-22T01:30:41.938Z,18.2
2022-08-22T01:35:48.321Z,18.2
2022-08-22T01:40:47.553Z,18.1
2022-08-22T01:45:51.076Z,18.1
2022-08-22T01:51:07.773Z,18.0
2022-08-22T01:56:14.162Z,17.9
2022-08-22T02:01:40.599Z,17.8
2022-08-22T02:06:31.007Z,17.8
2022-08-22T02:11:33.497Z,17.7
2022-08-22T02:16:29.964Z,17.6
2022-08-22T02:21:46.377Z,17.6
2022-08-22T02:26:42.772Z,17.5
2022-08-22T02:31:49.141Z,17.4
2022-08-22T02:36:54.507Z,17.4
2022-08-22T02:42:15.904Z,17.3
2022-08-22T02:47:18.384Z,17.3
2022-08-22T02:52:48.920Z,17.2
2022-08-22T02:57:31.257Z,17.1
2022-08-22T03:03:01.671Z,17.1
2022-08-22T03:07:44.010Z,17.0
2022-08-22T03:12:40.364Z,17.0
2022-08-22T03:17:46.738Z,16.9
2022-08-22T03:28:09.711Z,16.8
2022-08-22T03:33:16.079Z,16.7
2022-08-22T03:38:26.452Z,16.7
2022-08-22T03:43:29.005Z,16.6
2022-08-22T03:48:35.383Z,16.5
2022-08-22T03:53:41.748Z,16.5
2022-08-22T04:03:54.692Z,16.4
2022-08-22T04:09:01.183Z,16.3
2022-08-22T04:14:07.568Z,16.2
2022-08-22T04:19:33.982Z,16.2
2022-08-22T04:24:20.319Z,16.1
2022-08-22T04:29:46.729Z,16.1
2022-08-22T04:34:33.076Z,16.0
2022-08-22T04:39:39.465Z,16.0
2022-08-22T04:44:45.913Z,15.9
2022-08-22T04:49:52.312Z,15.9
2022-08-22T04:54:58.685Z,15.8
2022-08-22T05:00:05.050Z,15.8
2022-08-22T05:05:13.780Z,15.9
2022-08-22T05:10:17.789Z,15.9
2022-08-22T05:20:30.784Z,16.0
2022-08-22T05:25:37.165Z,16.0
2022-08-22T05:30:43.551Z,16.2
2022-08-22T05:35:53.432Z,16.3
2022-08-22T05:40:56.309Z,16.4
2022-08-22T05:46:02.709Z,16.6
2022-08-22T05:51:08.106Z,16.7
2022-08-22T05:56:15.486Z,16.9
2022-08-22T06:01:50.036Z,17.0
2022-08-22T06:06:28.255Z,17.2
2022-08-22T06:11:51.625Z,17.3
2022-08-22T06:16:29.973Z,17.5
2022-08-22T06:21:47.378Z,17.6
2022-08-22T06:27:13.818Z,17.7
2022-08-22T06:32:00.262Z,17.8
2022-08-22T06:36:56.613Z,17.9
2022-08-22T06:42:15.989Z,18.0
2022-08-22T06:47:19.505Z,18.2
2022-08-22T06:52:25.882Z,18.3
2022-08-22T07:06:08.513Z,18.9
2022-08-22T07:11:39.961Z,18.9
2022-08-22T07:16:22.306Z,19.1
2022-08-22T07:21:28.780Z,19.2
2022-08-22T07:26:35.401Z,19.3
2022-08-22T07:31:41.742Z,19.4
2022-08-22T07:37:32.261Z,19.5
2022-08-22T07:41:54.547Z,19.6
2022-08-22T07:46:50.918Z,19.7
2022-08-22T07:52:31.440Z,19.8
2022-08-22T08:04:25.681Z,20.2
2022-08-22T08:12:21.443Z,20.2
2022-08-22T08:15:03.552Z,20.4
2022-08-22T08:26:28.079Z,20.7
2022-08-22T08:33:24.333Z,20.9
2022-08-22T08:35:31.550Z,21.1
2022-08-22T08:40:51.953Z,21.5
2022-08-22T08:46:40.631Z,21.8
2022-08-22T08:57:18.073Z,22.0
2022-08-22T09:02:23.629Z,22.2
2022-08-22T09:08:53.843Z,22.7
2022-08-22T09:12:56.100Z,22.7
2022-08-22T09:18:18.171Z,23.0
2022-08-22T09:28:54.512Z,24.6
2022-08-22T09:34:05.234Z,24.6
2022-08-22T09:39:08.253Z,25.3
2022-08-22T09:44:48.727Z,26.2
2022-08-22T09:49:56.155Z,26.2
2022-08-22T09:54:52.521Z,26.6
2022-08-22T10:00:08.927Z,27.0
2022-08-22T10:05:39.475Z,27.3
2022-08-22T10:10:26.219Z,27.5
2022-08-22T10:16:02.146Z,27.7
2022-08-22T10:26:22.833Z,27.8
2022-08-22T10:31:12.314Z,27.8
2022-08-22T10:36:18.718Z,27.8
2022-08-22T10:47:04.539Z,27.8
2022-08-22T10:52:15.803Z,27.9
2022-08-22T10:56:54.571Z,27.9
2022-08-22T11:02:01.064Z,28.0
2022-08-22T11:07:31.426Z,28.2
2022-08-22T11:12:13.740Z,28.4
2022-08-22T11:17:27.587Z,28.8
2022-08-22T11:22:26.597Z,29.4
2022-08-22T11:27:39.700Z,30.0
2022-08-22T11:32:43.470Z,30.6
2022-08-22T11:37:45.845Z,31.1
2022-08-22T11:43:18.208Z,31.6
2022-08-22T11:48:32.739Z,32.3
2022-08-22T11:53:40.228Z,32.3
2022-08-22T11:58:36.584Z,32.5
2022-08-22T12:03:58.086Z,32.7
2022-08-22T12:08:59.350Z,32.9
2022-08-22T12:14:06.658Z,33.0
2022-08-22T12:19:12.138Z,33.1
2022-08-22T12:24:19.358Z,33.0
2022-08-22T12:32:14.319Z,32.9
2022-08-22T12:34:56.435Z,32.7
2022-08-22T12:39:40.388Z,32.6
2022-08-22T12:44:45.189Z,32.4
2022-08-22T12:49:52.386Z,32.3
2022-08-22T12:54:58.233Z,32.1
2022-08-22T13:00:27.027Z,32.0
2022-08-22T13:05:11.196Z,31.9
2022-08-22T13:10:17.713Z,31.8
2022-08-22T13:15:44.042Z,31.8
2022-08-22T13:21:32.114Z,31.8
2022-08-22T13:26:31.773Z,31.8
2022-08-22T13:31:25.281Z,31.8
2022-08-22T13:36:31.779Z,31.8
2022-08-22T13:41:58.198Z,31.8
2022-08-22T13:47:13.231Z,31.8
2022-08-22T13:56:57.406Z,31.9
2022-08-22T14:02:03.894Z,32.0
2022-08-22T14:07:00.193Z,32.3
2022-08-22T14:12:16.698Z,32.5
2022-08-22T14:17:23.071Z,32.8
2022-08-22T14:22:53.090Z,32.9
2022-08-22T14:27:35.826Z,33.1
2022-08-22T14:32:35.252Z,33.1
2022-08-22T14:42:55.075Z,32.9
2022-08-22T14:48:14.317Z,32.1
2022-08-22T14:53:27.869Z,31.8
2022-08-22T14:58:14.212Z,32.0
2022-08-22T15:03:20.610Z,32.0
2022-08-22T15:08:27.392Z,31.8
2022-08-22T15:13:25.290Z,31.7
2022-08-22T15:18:39.887Z,31.2
2022-08-22T15:23:47.028Z,30.8
2022-08-22T15:28:56.646Z,30.6
2022-08-22T15:33:59.114Z,30.7
2022-08-22T15:39:05.592Z,30.6
2022-08-22T15:44:17.211Z,30.6
2022-08-22T15:49:18.382Z,30.5
2022-08-22T15:54:25.595Z,30.3
2022-08-22T15:59:21.120Z,30.2
2022-08-22T16:05:01.664Z,30.1
2022-08-22T16:09:44.589Z,29.9
2022-08-22T16:15:24.591Z,29.7
2022-08-22T16:20:31.960Z,29.7
2022-08-22T16:25:38.365Z,29.6
2022-08-22T16:30:44.724Z,29.5
2022-08-22T16:35:51.115Z,29.3
2022-08-22T16:40:57.605Z,29.2
2022-08-22T16:46:03.969Z,29.1
2022-08-22T16:51:10.376Z,29.1
2022-08-22T16:57:00.930Z,29.0
2022-08-22T17:01:47.348Z,28.9
2022-08-22T17:06:19.715Z,28.8
2022-08-22T17:11:36.085Z,28.7
2022-08-22T17:21:48.891Z,28.4
2022-08-22T17:26:55.405Z,28.2
2022-08-22T17:32:01.655Z,28.1
2022-08-22T17:37:08.154Z,27.9
2022-08-22T17:42:20.952Z,27.8
2022-08-22T17:47:21.125Z,27.6
2022-08-22T17:52:27.508Z,27.5
2022-08-22T17:57:33.882Z,27.3
2022-08-22T18:02:40.272Z,27.2
2022-08-22T18:07:46.653Z,27.0
2022-08-22T18:12:43.126Z,26.8
2022-08-22T18:17:59.844Z,26.7
2022-08-22T18:23:06.062Z,26.6
2022-08-22T18:28:12.441Z,26.4
2022-08-22T18:33:42.863Z,26.2
2022-08-22T18:38:19.576Z,26.1
2022-08-22T18:44:05.705Z,25.8
2022-08-22T18:49:15.566Z,25.7
2022-08-22T18:54:19.529Z,25.6
2022-08-22T18:59:26.024Z,25.5
2022-08-22T19:04:32.404Z,25.3
2022-08-22T19:09:42.793Z,25.2
2022-08-22T19:14:45.157Z,25.0
2022-08-22T19:19:51.531Z,24.9
2022-08-22T19:25:26.011Z,24.7
2022-08-22T19:30:04.309Z,24.6
2022-08-22T19:40:17.298Z,24.3
2022-08-22T19:45:43.670Z,24.2
2022-08-22T19:50:31.007Z,24.1
2022-08-22T19:55:36.484Z,24.0
2022-08-22T20:00:42.910Z,23.9
2022-08-22T20:05:56.603Z,23.8
2022-08-22T20:10:45.628Z,23.7
2022-08-22T20:17:14.240Z,23.7
2022-08-22T20:21:08.480Z,23.6
2022-08-22T20:26:14.869Z,23.5
2022-08-22T20:31:21.264Z,23.4
2022-08-22T20:36:27.918Z,23.3
2022-08-22T20:41:34.134Z,23.2
2022-08-22T20:46:43.546Z,23.2
2022-08-22T20:56:53.107Z,23.0
2022-08-22T21:01:59.917Z,23.0
2022-08-22T21:07:06.296Z,22.9
2022-08-22T21:12:12.651Z,22.8
2022-08-22T21:17:19.033Z,22.7
2022-08-22T21:22:25.404Z,22.7
2022-08-22T21:27:31.784Z,22.6
2022-08-22T21:32:38.193Z,22.6
2022-08-22T21:37:44.687Z,22.5
2022-08-22T21:42:51.155Z,22.4
2022-08-22T21:47:57.542Z,22.3
2022-08-22T21:53:03.934Z,22.2
2022-08-22T21:58:10.323Z,22.2
2022-08-22T22:03:06.685Z,22.1
2022-08-22T22:08:23.094Z,22.0
2022-08-22T22:13:53.517Z,21.9
2022-08-22T22:18:35.846Z,21.9
2022-08-22T22:23:32.329Z,21.8
2022-08-22T22:29:08.906Z,21.7
2022-08-22T22:39:19.647Z,21.7
2022-08-22T22:39:21.649Z,21.6
2022-08-22T22:45:20.114Z,21.5
2022-08-22T22:49:38.409Z,21.5
2022-08-22T22:54:20.734Z,21.4
2022-08-22T23:04:33.487Z,21.3
2022-08-22T23:09:45.207Z,21.2
2022-08-22T23:14:46.240Z,21.2
2022-08-22T23:19:52.793Z,21.1
2022-08-22T23:25:23.317Z,21.0
2022-08-22T23:30:05.664Z,21.0
2022-08-22T23:35:12.053Z,20.9
2022-08-22T23:40:18.507Z,20.8
2022-08-22T23:45:24.806Z,20.8
2022-08-22T23:50:51.217Z,20.7
2022-08-22T23:55:37.564Z,20.6
